Gladewater, TX

9:21 AM CDT on July 04, 2015 (GMT -0500)
KTXGLADE3 | | Change Station
CLOSE
Current Station
Personal Weather Station
Location: Warren City, TX
Elevation: 390 ft
Nearby Weather Stations

Elev 390 ft 32.55 °N, 94.90 °W | Updated 15 minutes ago

Overcast
Overcast
80.1 °F
Feels Like 85 °F
N
0.0
Wind Variable Wind from SSW
Gusts 8.0 mph

Today
High -- | Low -- °F
--% Chance of Precip.
Yesterday
High -- | Low -- °F
Precip. -- in
6:17 AM 8:30 PM
Waning Gibbous, 92% visible
Pressure 30.00 in
Visibility 10.0 miles
Clouds Mostly Cloudy 1700 ft
Overcast 2200 ft
Heat Index 85 °F
Dew Point 76 °F
Humidity 87%
Rainfall 0.00 in
Snow Depth Not available.
UV 1 out of 12
Pollen .30 out of 12
Air Quality Not available.
Flu Activity Not available.
METAR KJXI 041415Z AUTO 21007KT 10SM BKN017 OVC022 26/23 A3000 RMK AO2 T02620226

More Conditions Fewer Conditions

Pressure 30.00 in
Visibility 10.0 miles
Clouds Mostly Cloudy 1700 ft
Overcast 2200 ft
Heat Index 85 °F
Dew Point 76 °F
Humidity 87%
Rainfall 0.00 in
Snow Depth Not available.
UV 1 out of 12
Pollen .30 out of 12
Air Quality Not available.
Flu Activity Not available.
METAR KJXI 041415Z AUTO 21007KT 10SM BKN017 OVC022 26/23 A3000 RMK AO2 T02620226

More Conditions Fewer Conditions

10-Day Weather Forecast

×

Almanac

Astronomy

Jul. 04, 2015 Rise Set
Actual Time
Civil Twilight
Nautical Twilight
Astronomical Twilight
Moon
Length of Visible Light
Length of Day
Tomorrow will be .
, % of the Moon is Illuminated

Today's Extremes

State Highs State Lows

Community

WunderPhotos

Upload Photos

1,834,978 photos uploaded!

WunderBlogs® & News

Nearby

Air Quality

  Air Quality AQ Index Pollutant
Not available.

Snow Depth

Station Depth Elevation

Earthquake Activity

City Distance Mag. Time & Date
Minimum magnitude displayed is 2.5.

Coastal Water Temperatures

Place Temperature

Stations

Nearby Weather Stations

Station Location Temp. Windchill Dew Point Humidity Wind Precip. Elev Updated Type